Terminal Aerodrome Forecast
Issued by NWS Birmingham, AL

Home | Current Version | Previous Version | Text Only | Print | Product List | Glossary On
Versions: 1 2 3 4 5 6 7 8 9 10 11 12 13 14 15
908
FTUS44 KBMX 260520
TAFBHM
TAF
KBHM 260520Z 2606/2706 10004KT P6SM BKN008 BKN100 BKN120
     FM260800 17008KT 4SM BR OVC008
     FM261700 20010KT P6SM OVC025
     FM262000 20010KT P6SM BKN050=

USA.gov is the U.S. government's official web portal to all federal, state and local government web resources and services.